Terminal Aerodrome Forecast
Issued by NWS St Louis, MO

Home | Current Version | Previous Version | Graphics & Text | Print | Product List | Glossary On
Versions: 1 2 3 4 5 6 7 8 9 10 11 12 13 14 15 16 17 18 19 20 21 22 23 24 25 26 27
412
FTUS43 KLSX 231739
TAFSTL
TAF
KSTL 231739Z 2318/2424 13009KT P6SM BKN060
     FM232000 14012KT P6SM SCT200
     FM240300 16011G17KT P6SM FEW130 WS020/19045KT
     FM241400 18012G18KT P6SM BKN040
     FM241700 18016G26KT P6SM BKN040=

USA.gov is the U.S. government's official web portal to all federal, state and local government web resources and services.